sensor_id;sensor_type;location;lat;lon;timestamp;pressure;altitude;pressure_sealevel;temperature;humidity
77431;BME280;66498;48.564;19.272;2023-09-12T00:00:57;97520.28;;;13.84;90.71
77431;BME280;66498;48.564;19.272;2023-09-12T00:03:23;97523.34;;;14.14;88.96
77431;BME280;66498;48.564;19.272;2023-09-12T00:08:39;97514.16;;;14.17;88.09
77431;BME280;66498;48.564;19.272;2023-09-12T00:11:07;97509.78;;;14.28;87.34
77431;BME280;66498;48.564;19.272;2023-09-12T00:13:37;97510.00;;;14.26;87.02
77431;BME280;66498;48.564;19.272;2023-09-12T00:16:03;97510.44;;;13.96;88.10
77431;BME280;66498;48.564;19.272;2023-09-12T00:18:30;97511.91;;;14.09;87.43
77431;BME280;66498;48.564;19.272;2023-09-12T00:20:57;97514.91;;;13.95;88.11
77431;BME280;66498;48.564;19.272;2023-09-12T00:23:27;97509.41;;;13.80;88.32
77431;BME280;66498;48.564;19.272;2023-09-12T00:25:52;97520.56;;;14.04;86.44
77431;BME280;66498;48.564;19.272;2023-09-12T00:28:19;97512.06;;;13.63;89.01
77431;BME280;66498;48.564;19.272;2023-09-12T00:30:52;97516.94;;;13.38;90.39
77431;BME280;66498;48.564;19.272;2023-09-12T00:37:21;97509.81;;;13.55;91.28
77431;BME280;66498;48.564;19.272;2023-09-12T00:43:37;97514.59;;;13.24;93.23
77431;BME280;66498;48.564;19.272;2023-09-12T00:46:18;97519.50;;;13.04;94.76
77431;BME280;66498;48.564;19.272;2023-09-12T00:48:46;97517.91;;;13.03;95.04
77431;BME280;66498;48.564;19.272;2023-09-12T00:57:56;97518.63;;;13.27;94.19
77431;BME280;66498;48.564;19.272;2023-09-12T01:00:46;97512.13;;;13.18;94.17
77431;BME280;66498;48.564;19.272;2023-09-12T01:03:47;97513.81;;;13.41;93.41
77431;BME280;66498;48.564;19.272;2023-09-12T01:07:00;97515.75;;;13.62;92.79
77431;BME280;66498;48.564;19.272;2023-09-12T01:10:16;97518.88;;;13.59;92.51
77431;BME280;66498;48.564;19.272;2023-09-12T01:12:46;97513.75;;;13.69;90.90
77431;BME280;66498;48.564;19.272;2023-09-12T01:15:14;97511.13;;;13.53;91.26
77431;BME280;66498;48.564;19.272;2023-09-12T01:17:44;97518.06;;;13.76;88.38
77431;BME280;66498;48.564;19.272;2023-09-12T01:20:23;97519.91;;;13.41;91.75
77431;BME280;66498;48.564;19.272;2023-09-12T01:26:17;97516.56;;;13.63;88.50
77431;BME280;66498;48.564;19.272;2023-09-12T01:32:22;97520.88;;;13.35;91.90
77431;BME280;66498;48.564;19.272;2023-09-12T01:39:13;97509.94;;;12.98;92.89
77431;BME280;66498;48.564;19.272;2023-09-12T01:42:11;97522.69;;;12.61;94.04
77431;BME280;66498;48.564;19.272;2023-09-12T01:49:13;97515.44;;;12.27;95.61
77431;BME280;66498;48.564;19.272;2023-09-12T01:56:43;97519.44;;;12.30;95.82
77431;BME280;66498;48.564;19.272;2023-09-12T01:59:29;97521.31;;;12.58;95.11
77431;BME280;66498;48.564;19.272;2023-09-12T02:01:56;97522.72;;;12.49;95.60
77431;BME280;66498;48.564;19.272;2023-09-12T02:12:02;97517.72;;;12.93;92.13
77431;BME280;66498;48.564;19.272;2023-09-12T02:15:16;97515.72;;;12.83;93.48
77431;BME280;66498;48.564;19.272;2023-09-12T02:18:53;97522.03;;;12.53;93.01
77431;BME280;66498;48.564;19.272;2023-09-12T02:22:14;97507.47;;;12.79;91.32
77431;BME280;66498;48.564;19.272;2023-09-12T02:25:13;97517.66;;;12.88;90.71
77431;BME280;66498;48.564;19.272;2023-09-12T02:27:45;97518.38;;;13.00;88.66
77431;BME280;66498;48.564;19.272;2023-09-12T02:30:25;97520.41;;;13.10;86.97
77431;BME280;66498;48.564;19.272;2023-09-12T02:33:03;97521.84;;;12.72;89.74
77431;BME280;66498;48.564;19.272;2023-09-12T02:38:19;97521.28;;;12.98;88.75
77431;BME280;66498;48.564;19.272;2023-09-12T02:40:52;97513.50;;;12.92;87.94
77431;BME280;66498;48.564;19.272;2023-09-12T02:43:18;97518.69;;;12.58;90.98
77431;BME280;66498;48.564;19.272;2023-09-12T02:46:42;97521.00;;;12.43;92.66
77431;BME280;66498;48.564;19.272;2023-09-12T02:49:16;97518.91;;;12.16;94.12
77431;BME280;66498;48.564;19.272;2023-09-12T02:51:45;97525.63;;;12.12;95.19
77431;BME280;66498;48.564;19.272;2023-09-12T02:54:31;97524.38;;;12.26;93.98
77431;BME280;66498;48.564;19.272;2023-09-12T02:56:58;97520.50;;;12.05;95.19
77431;BME280;66498;48.564;19.272;2023-09-12T02:59:31;97519.59;;;12.00;95.12
77431;BME280;66498;48.564;19.272;2023-09-12T03:02:20;97516.53;;;12.03;94.18
77431;BME280;66498;48.564;19.272;2023-09-12T03:05:37;97527.38;;;11.95;94.35
77431;BME280;66498;48.564;19.272;2023-09-12T03:08:32;97534.81;;;11.98;94.08
77431;BME280;66498;48.564;19.272;2023-09-12T03:10:59;97534.00;;;12.09;94.21
77431;BME280;66498;48.564;19.272;2023-09-12T03:13:56;97531.78;;;12.41;92.24
77431;BME280;66498;48.564;19.272;2023-09-12T03:17:02;97531.28;;;12.56;90.24
77431;BME280;66498;48.564;19.272;2023-09-12T03:20:25;97530.88;;;12.36;92.27
77431;BME280;66498;48.564;19.272;2023-09-12T03:23:20;97532.94;;;12.34;93.95
77431;BME280;66498;48.564;19.272;2023-09-12T03:26:45;97536.38;;;12.34;93.86
77431;BME280;66498;48.564;19.272;2023-09-12T03:29:29;97533.75;;;12.22;94.75
77431;BME280;66498;48.564;19.272;2023-09-12T03:32:01;97535.41;;;12.00;94.70
77431;BME280;66498;48.564;19.272;2023-09-12T03:34:32;97531.16;;;12.11;93.11
77431;BME280;66498;48.564;19.272;2023-09-12T03:37:11;97539.13;;;12.16;92.91
77431;BME280;66498;48.564;19.272;2023-09-12T03:43:49;97537.81;;;11.90;96.01
77431;BME280;66498;48.564;19.272;2023-09-12T03:46:53;97537.00;;;11.89;95.75
77431;BME280;66498;48.564;19.272;2023-09-12T03:50:25;97540.84;;;11.63;95.72
77431;BME280;66498;48.564;19.272;2023-09-12T03:52:54;97535.69;;;11.45;95.63
77431;BME280;66498;48.564;19.272;2023-09-12T03:55:20;97536.13;;;11.42;95.74
77431;BME280;66498;48.564;19.272;2023-09-12T03:57:48;97537.03;;;11.35;96.41
77431;BME280;66498;48.564;19.272;2023-09-12T04:00:17;97540.81;;;11.51;95.39
77431;BME280;66498;48.564;19.272;2023-09-12T04:02:49;97539.66;;;11.47;95.41
77431;BME280;66498;48.564;19.272;2023-09-12T04:05:18;97542.50;;;11.34;95.61
77431;BME280;66498;48.564;19.272;2023-09-12T04:08:04;97539.66;;;11.35;95.93
77431;BME280;66498;48.564;19.272;2023-09-12T04:10:39;97543.38;;;11.70;94.09
77431;BME280;66498;48.564;19.272;2023-09-12T04:13:09;97546.69;;;11.65;95.18
77431;BME280;66498;48.564;19.272;2023-09-12T04:15:35;97545.31;;;11.74;95.15
77431;BME280;66498;48.564;19.272;2023-09-12T04:18:00;97552.06;;;12.05;93.94
77431;BME280;66498;48.564;19.272;2023-09-12T04:20:27;97547.84;;;12.16;91.86
77431;BME280;66498;48.564;19.272;2023-09-12T04:22:53;97548.22;;;11.96;94.57
77431;BME280;66498;48.564;19.272;2023-09-12T04:25:20;97542.16;;;11.96;94.67
77431;BME280;66498;48.564;19.272;2023-09-12T04:27:49;97546.00;;;12.05;94.23
77431;BME280;66498;48.564;19.272;2023-09-12T04:30:17;97554.81;;;12.11;92.16
77431;BME280;66498;48.564;19.272;2023-09-12T04:32:42;97548.31;;;12.13;91.09
77431;BME280;66498;48.564;19.272;2023-09-12T04:35:12;97550.22;;;12.29;89.00
77431;BME280;66498;48.564;19.272;2023-09-12T04:37:38;97553.56;;;12.01;91.93
77431;BME280;66498;48.564;19.272;2023-09-12T04:40:03;97550.13;;;12.01;93.21
77431;BME280;66498;48.564;19.272;2023-09-12T04:42:31;97540.63;;;12.23;91.62
77431;BME280;66498;48.564;19.272;2023-09-12T04:44:56;97550.50;;;11.93;93.47
77431;BME280;66498;48.564;19.272;2023-09-12T04:47:23;97551.84;;;12.07;92.34
77431;BME280;66498;48.564;19.272;2023-09-12T04:49:48;97553.88;;;12.28;91.69
77431;BME280;66498;48.564;19.272;2023-09-12T04:52:14;97557.72;;;11.86;92.00
77431;BME280;66498;48.564;19.272;2023-09-12T04:54:40;97547.81;;;11.57;94.57
77431;BME280;66498;48.564;19.272;2023-09-12T04:57:05;97557.28;;;11.47;95.81
77431;BME280;66498;48.564;19.272;2023-09-12T04:59:31;97555.59;;;11.52;95.31
77431;BME280;66498;48.564;19.272;2023-09-12T05:01:56;97557.88;;;11.60;95.29
77431;BME280;66498;48.564;19.272;2023-09-12T05:04:21;97562.56;;;11.58;95.49
77431;BME280;66498;48.564;19.272;2023-09-12T05:06:47;97571.88;;;11.96;94.14
77431;BME280;66498;48.564;19.272;2023-09-12T05:09:13;97572.44;;;12.22;92.43
77431;BME280;66498;48.564;19.272;2023-09-12T05:11:38;97564.97;;;12.42;91.32
77431;BME280;66498;48.564;19.272;2023-09-12T05:14:04;97575.41;;;12.25;92.24
77431;BME280;66498;48.564;19.272;2023-09-12T05:16:29;97565.31;;;12.34;92.44
77431;BME280;66498;48.564;19.272;2023-09-12T05:18:58;97565.41;;;12.51;92.30
77431;BME280;66498;48.564;19.272;2023-09-12T05:21:25;97569.56;;;12.35;94.18
77431;BME280;66498;48.564;19.272;2023-09-12T05:23:51;97571.16;;;12.36;94.19
77431;BME280;66498;48.564;19.272;2023-09-12T05:26:17;97575.47;;;12.94;90.62
77431;BME280;66498;48.564;19.272;2023-09-12T05:28:43;97577.63;;;12.69;91.79
77431;BME280;66498;48.564;19.272;2023-09-12T05:31:14;97572.13;;;12.70;92.08
77431;BME280;66498;48.564;19.272;2023-09-12T05:33:43;97577.88;;;13.24;89.01
77431;BME280;66498;48.564;19.272;2023-09-12T05:36:16;97569.50;;;12.99;91.27
77431;BME280;66498;48.564;19.272;2023-09-12T05:38:41;97573.19;;;13.43;89.20
77431;BME280;66498;48.564;19.272;2023-09-12T05:41:06;97570.41;;;13.33;90.16
77431;BME280;66498;48.564;19.272;2023-09-12T05:43:55;97582.81;;;14.00;87.45
77431;BME280;66498;48.564;19.272;2023-09-12T05:46:20;97576.38;;;14.13;88.39
77431;BME280;66498;48.564;19.272;2023-09-12T05:48:46;97576.13;;;14.14;88.19
77431;BME280;66498;48.564;19.272;2023-09-12T05:51:11;97576.69;;;14.77;85.58
77431;BME280;66498;48.564;19.272;2023-09-12T05:53:37;97580.88;;;14.73;85.50
77431;BME280;66498;48.564;19.272;2023-09-12T05:56:02;97584.25;;;14.69;86.47
77431;BME280;66498;48.564;19.272;2023-09-12T05:58:28;97575.63;;;15.00;84.29
77431;BME280;66498;48.564;19.272;2023-09-12T06:00:53;97576.75;;;14.82;85.26
77431;BME280;66498;48.564;19.272;2023-09-12T06:03:19;97574.47;;;15.18;84.22
77431;BME280;66498;48.564;19.272;2023-09-12T06:05:44;97568.41;;;15.18;85.56
77431;BME280;66498;48.564;19.272;2023-09-12T06:08:10;97575.28;;;15.46;84.94
77431;BME280;66498;48.564;19.272;2023-09-12T06:10:35;97579.75;;;15.45;86.16
77431;BME280;66498;48.564;19.272;2023-09-12T06:13:01;97574.19;;;15.42;85.60
77431;BME280;66498;48.564;19.272;2023-09-12T06:15:27;97572.94;;;15.81;84.48
77431;BME280;66498;48.564;19.272;2023-09-12T06:17:52;97579.72;;;16.52;81.94
77431;BME280;66498;48.564;19.272;2023-09-12T06:20:20;97577.88;;;16.47;81.74
77431;BME280;66498;48.564;19.272;2023-09-12T06:22:47;97580.59;;;16.68;80.78
77431;BME280;66498;48.564;19.272;2023-09-12T06:25:12;97571.97;;;16.93;79.62
77431;BME280;66498;48.564;19.272;2023-09-12T06:27:38;97582.91;;;16.54;81.53
77431;BME280;66498;48.564;19.272;2023-09-12T06:30:03;97573.31;;;16.95;79.97
77431;BME280;66498;48.564;19.272;2023-09-12T06:32:31;97578.66;;;17.16;79.77
77431;BME280;66498;48.564;19.272;2023-09-12T06:34:56;97577.78;;;16.95;79.71
77431;BME280;66498;48.564;19.272;2023-09-12T06:37:23;97567.72;;;16.97;79.43
77431;BME280;66498;48.564;19.272;2023-09-12T06:39:50;97569.94;;;17.66;76.81
77431;BME280;66498;48.564;19.272;2023-09-12T06:42:16;97572.34;;;17.78;77.33
77431;BME280;66498;48.564;19.272;2023-09-12T06:44:41;97571.28;;;17.94;76.22
77431;BME280;66498;48.564;19.272;2023-09-12T06:47:07;97580.03;;;17.74;76.50
77431;BME280;66498;48.564;19.272;2023-09-12T06:49:32;97568.47;;;18.51;73.24
77431;BME280;66498;48.564;19.272;2023-09-12T06:51:58;97574.53;;;18.66;72.32
77431;BME280;66498;48.564;19.272;2023-09-12T06:54:24;97566.06;;;18.59;72.37
77431;BME280;66498;48.564;19.272;2023-09-12T06:56:49;97574.88;;;18.50;73.23
77431;BME280;66498;48.564;19.272;2023-09-12T06:59:15;97574.63;;;18.41;73.88
77431;BME280;66498;48.564;19.272;2023-09-12T07:01:40;97573.50;;;18.57;72.80
77431;BME280;66498;48.564;19.272;2023-09-12T07:04:06;97568.78;;;19.09;71.13
77431;BME280;66498;48.564;19.272;2023-09-12T07:06:31;97577.19;;;19.26;70.52
77431;BME280;66498;48.564;19.272;2023-09-12T07:08:58;97578.34;;;19.49;70.09
77431;BME280;66498;48.564;19.272;2023-09-12T07:11:23;97570.16;;;19.41;70.21
77431;BME280;66498;48.564;19.272;2023-09-12T07:13:49;97575.50;;;19.41;70.93
77431;BME280;66498;48.564;19.272;2023-09-12T07:16:14;97580.41;;;19.23;70.65
77431;BME280;66498;48.564;19.272;2023-09-12T07:18:40;97583.72;;;19.00;71.79
77431;BME280;66498;48.564;19.272;2023-09-12T07:21:07;97577.44;;;19.30;70.91
77431;BME280;66498;48.564;19.272;2023-09-12T07:23:33;97577.97;;;19.27;71.44
77431;BME280;66498;48.564;19.272;2023-09-12T07:25:58;97578.97;;;19.36;71.45
77431;BME280;66498;48.564;19.272;2023-09-12T07:28:25;97581.47;;;19.96;68.48
77431;BME280;66498;48.564;19.272;2023-09-12T07:30:52;97570.72;;;19.77;70.07
77431;BME280;66498;48.564;19.272;2023-09-12T07:33:18;97573.25;;;19.92;69.02
77431;BME280;66498;48.564;19.272;2023-09-12T07:35:44;97575.13;;;19.92;68.79
77431;BME280;66498;48.564;19.272;2023-09-12T07:38:09;97575.84;;;20.26;67.11
77431;BME280;66498;48.564;19.272;2023-09-12T07:40:35;97570.81;;;20.49;66.71
77431;BME280;66498;48.564;19.272;2023-09-12T07:43:01;97567.13;;;20.69;66.04
77431;BME280;66498;48.564;19.272;2023-09-12T07:45:28;97565.09;;;20.61;66.56
77431;BME280;66498;48.564;19.272;2023-09-12T07:47:55;97564.13;;;20.94;65.69
77431;BME280;66498;48.564;19.272;2023-09-12T07:50:20;97565.78;;;20.90;65.27
77431;BME280;66498;48.564;19.272;2023-09-12T07:52:46;97559.88;;;21.50;62.88
77431;BME280;66498;48.564;19.272;2023-09-12T07:55:11;97558.38;;;21.06;64.16
77431;BME280;66498;48.564;19.272;2023-09-12T07:57:37;97558.00;;;21.32;63.79
77431;BME280;66498;48.564;19.272;2023-09-12T08:00:04;97557.50;;;21.48;62.12
77431;BME280;66498;48.564;19.272;2023-09-12T08:02:36;97552.00;;;21.91;60.87
77431;BME280;66498;48.564;19.272;2023-09-12T08:05:02;97549.34;;;22.05;60.73
77431;BME280;66498;48.564;19.272;2023-09-12T08:07:27;97544.44;;;22.54;58.24
77431;BME280;66498;48.564;19.272;2023-09-12T08:09:54;97549.66;;;22.31;60.57
77431;BME280;66498;48.564;19.272;2023-09-12T08:12:23;97540.56;;;22.32;58.57
77431;BME280;66498;48.564;19.272;2023-09-12T08:14:48;97543.34;;;22.41;59.62
77431;BME280;66498;48.564;19.272;2023-09-12T08:17:14;97537.53;;;21.92;60.45
77431;BME280;66498;48.564;19.272;2023-09-12T08:19:41;97544.78;;;22.75;57.69
77431;BME280;66498;48.564;19.272;2023-09-12T08:22:07;97543.84;;;23.21;56.38
77431;BME280;66498;48.564;19.272;2023-09-12T08:24:34;97537.16;;;23.54;54.48
77431;BME280;66498;48.564;19.272;2023-09-12T08:27:00;97537.88;;;23.46;54.97
77431;BME280;66498;48.564;19.272;2023-09-12T08:29:27;97537.28;;;23.27;56.58
77431;BME280;66498;48.564;19.272;2023-09-12T08:31:52;97538.41;;;23.12;56.33
77431;BME280;66498;48.564;19.272;2023-09-12T08:34:19;97537.88;;;23.24;56.55
77431;BME280;66498;48.564;19.272;2023-09-12T08:36:45;97535.22;;;24.00;54.14
77431;BME280;66498;48.564;19.272;2023-09-12T08:39:15;97534.44;;;24.08;54.53
77431;BME280;66498;48.564;19.272;2023-09-12T08:41:44;97541.03;;;24.33;52.80
77431;BME280;66498;48.564;19.272;2023-09-12T08:44:13;97540.41;;;24.36;52.01
77431;BME280;66498;48.564;19.272;2023-09-12T08:46:42;97542.06;;;24.15;53.27
77431;BME280;66498;48.564;19.272;2023-09-12T08:49:08;97541.78;;;24.56;52.12
77431;BME280;66498;48.564;19.272;2023-09-12T08:51:40;97536.06;;;24.09;52.81
77431;BME280;66498;48.564;19.272;2023-09-12T08:54:07;97540.69;;;24.26;51.78
77431;BME280;66498;48.564;19.272;2023-09-12T08:56:36;97532.31;;;24.67;50.84
77431;BME280;66498;48.564;19.272;2023-09-12T08:59:04;97532.34;;;24.85;50.38
77431;BME280;66498;48.564;19.272;2023-09-12T09:01:31;97529.97;;;24.92;52.13
77431;BME280;66498;48.564;19.272;2023-09-12T09:03:57;97523.81;;;24.74;52.61
77431;BME280;66498;48.564;19.272;2023-09-12T09:06:23;97526.84;;;24.98;50.34
77431;BME280;66498;48.564;19.272;2023-09-12T09:08:49;97519.44;;;25.21;49.46
77431;BME280;66498;48.564;19.272;2023-09-12T09:11:16;97521.97;;;25.35;48.29
77431;BME280;66498;48.564;19.272;2023-09-12T09:13:41;97527.00;;;25.19;48.77
77431;BME280;66498;48.564;19.272;2023-09-12T09:19:09;97511.19;;;25.61;47.18
77431;BME280;66498;48.564;19.272;2023-09-12T09:21:37;97519.09;;;25.58;48.03
77431;BME280;66498;48.564;19.272;2023-09-12T09:24:13;97513.09;;;25.43;47.80
77431;BME280;66498;48.564;19.272;2023-09-12T09:29:13;97511.63;;;26.57;45.58
77431;BME280;66498;48.564;19.272;2023-09-12T09:31:53;97507.03;;;26.58;44.93
77431;BME280;66498;48.564;19.272;2023-09-12T09:34:21;97506.19;;;26.36;46.42
77431;BME280;66498;48.564;19.272;2023-09-12T09:36:52;97507.16;;;26.61;45.64
77431;BME280;66498;48.564;19.272;2023-09-12T09:39:48;97509.63;;;26.96;44.61
77431;BME280;66498;48.564;19.272;2023-09-12T09:42:19;97511.19;;;26.76;44.81
77431;BME280;66498;48.564;19.272;2023-09-12T09:44:45;97505.31;;;26.53;46.20
77431;BME280;66498;48.564;19.272;2023-09-12T09:47:12;97500.88;;;26.78;45.08
77431;BME280;66498;48.564;19.272;2023-09-12T09:49:38;97499.31;;;26.98;44.74
77431;BME280;66498;48.564;19.272;2023-09-12T09:52:12;97502.19;;;26.93;45.27
77431;BME280;66498;48.564;19.272;2023-09-12T09:54:43;97499.03;;;27.33;44.22
77431;BME280;66498;48.564;19.272;2023-09-12T09:57:10;97495.97;;;27.55;44.37
77431;BME280;66498;48.564;19.272;2023-09-12T09:59:36;97497.72;;;27.85;43.36
77431;BME280;66498;48.564;19.272;2023-09-12T10:02:03;97488.13;;;27.75;41.89
77431;BME280;66498;48.564;19.272;2023-09-12T10:04:34;97487.97;;;27.80;42.74
77431;BME280;66498;48.564;19.272;2023-09-12T10:07:00;97486.16;;;28.09;41.90
77431;BME280;66498;48.564;19.272;2023-09-12T10:09:27;97477.69;;;27.73;43.82
77431;BME280;66498;48.564;19.272;2023-09-12T10:11:55;97484.03;;;28.14;41.92
77431;BME280;66498;48.564;19.272;2023-09-12T10:14:24;97482.16;;;28.02;42.44
77431;BME280;66498;48.564;19.272;2023-09-12T10:17:01;97475.78;;;27.62;42.56
77431;BME280;66498;48.564;19.272;2023-09-12T10:19:49;97478.44;;;28.07;41.83
77431;BME280;66498;48.564;19.272;2023-09-12T10:22:39;97477.84;;;28.01;41.57
77431;BME280;66498;48.564;19.272;2023-09-12T10:25:08;97470.88;;;28.00;41.07
77431;BME280;66498;48.564;19.272;2023-09-12T10:27:34;97471.91;;;28.57;40.52
77431;BME280;66498;48.564;19.272;2023-09-12T10:30:01;97469.13;;;28.82;39.58
77431;BME280;66498;48.564;19.272;2023-09-12T10:32:30;97463.34;;;28.55;39.66
77431;BME280;66498;48.564;19.272;2023-09-12T10:34:58;97457.41;;;28.90;40.24
77431;BME280;66498;48.564;19.272;2023-09-12T10:37:25;97453.06;;;29.13;39.49
77431;BME280;66498;48.564;19.272;2023-09-12T10:39:53;97451.31;;;29.49;39.32
77431;BME280;66498;48.564;19.272;2023-09-12T10:42:20;97451.22;;;29.17;39.27
77431;BME280;66498;48.564;19.272;2023-09-12T10:44:46;97445.03;;;29.01;39.08
77431;BME280;66498;48.564;19.272;2023-09-12T10:47:13;97441.09;;;28.86;38.27
77431;BME280;66498;48.564;19.272;2023-09-12T10:49:43;97442.53;;;28.56;38.05
77431;BME280;66498;48.564;19.272;2023-09-12T10:52:29;97438.09;;;28.75;38.07
77431;BME280;66498;48.564;19.272;2023-09-12T10:55:04;97438.28;;;28.83;37.82
77431;BME280;66498;48.564;19.272;2023-09-12T10:57:31;97437.47;;;28.94;37.41
77431;BME280;66498;48.564;19.272;2023-09-12T11:00:10;97435.78;;;29.02;37.39
77431;BME280;66498;48.564;19.272;2023-09-12T11:02:48;97432.06;;;29.22;36.76
77431;BME280;66498;48.564;19.272;2023-09-12T11:08:01;97442.00;;;29.18;36.98
77431;BME280;66498;48.564;19.272;2023-09-12T11:10:30;97436.56;;;29.03;39.13
77431;BME280;66498;48.564;19.272;2023-09-12T11:12:59;97429.38;;;29.22;37.81
77431;BME280;66498;48.564;19.272;2023-09-12T11:15:32;97430.66;;;29.13;35.81
77431;BME280;66498;48.564;19.272;2023-09-12T11:18:05;97431.09;;;29.15;37.16
77431;BME280;66498;48.564;19.272;2023-09-12T11:20:50;97425.91;;;29.54;36.67
77431;BME280;66498;48.564;19.272;2023-09-12T11:23:18;97430.41;;;29.62;33.10
77431;BME280;66498;48.564;19.272;2023-09-12T11:25:44;97424.97;;;30.09;33.65
77431;BME280;66498;48.564;19.272;2023-09-12T11:28:10;97414.00;;;29.86;33.86
77431;BME280;66498;48.564;19.272;2023-09-12T11:30:36;97413.44;;;30.12;34.04
77431;BME280;66498;48.564;19.272;2023-09-12T11:33:05;97414.59;;;29.96;33.22
77431;BME280;66498;48.564;19.272;2023-09-12T11:35:36;97408.94;;;29.85;33.91
77431;BME280;66498;48.564;19.272;2023-09-12T11:38:02;97406.06;;;29.78;34.40
77431;BME280;66498;48.564;19.272;2023-09-12T11:43:00;97403.44;;;29.97;33.91
77431;BME280;66498;48.564;19.272;2023-09-12T11:45:27;97397.03;;;30.05;33.68
77431;BME280;66498;48.564;19.272;2023-09-12T11:47:54;97408.59;;;29.86;34.81
77431;BME280;66498;48.564;19.272;2023-09-12T11:50:30;97395.22;;;29.93;33.62
77431;BME280;66498;48.564;19.272;2023-09-12T11:53:09;97396.78;;;30.10;34.45
77431;BME280;66498;48.564;19.272;2023-09-12T11:55:49;97400.81;;;30.36;32.98
77431;BME280;66498;48.564;19.272;2023-09-12T11:58:17;97394.66;;;30.20;32.51
77431;BME280;66498;48.564;19.272;2023-09-12T12:00:52;97395.47;;;30.20;34.55
77431;BME280;66498;48.564;19.272;2023-09-12T12:03:20;97392.22;;;30.30;33.28
77431;BME280;66498;48.564;19.272;2023-09-12T12:05:47;97389.91;;;30.32;33.58
77431;BME280;66498;48.564;19.272;2023-09-12T12:08:15;97394.06;;;30.10;33.35
77431;BME280;66498;48.564;19.272;2023-09-12T12:10:50;97393.63;;;30.08;32.01
77431;BME280;66498;48.564;19.272;2023-09-12T12:13:17;97397.31;;;30.00;32.68
77431;BME280;66498;48.564;19.272;2023-09-12T12:15:43;97390.13;;;30.24;32.13
77431;BME280;66498;48.564;19.272;2023-09-12T12:18:09;97392.06;;;30.07;31.71
77431;BME280;66498;48.564;19.272;2023-09-12T12:20:35;97387.66;;;30.34;32.60
77431;BME280;66498;48.564;19.272;2023-09-12T12:23:01;97385.16;;;30.10;31.76
77431;BME280;66498;48.564;19.272;2023-09-12T12:25:32;97390.69;;;29.98;31.76
77431;BME280;66498;48.564;19.272;2023-09-12T12:27:58;97388.97;;;29.89;31.74
77431;BME280;66498;48.564;19.272;2023-09-12T12:30:24;97382.31;;;29.87;30.87
77431;BME280;66498;48.564;19.272;2023-09-12T12:32:49;97384.41;;;29.93;31.25
77431;BME280;66498;48.564;19.272;2023-09-12T12:35:19;97381.50;;;30.02;32.22
77431;BME280;66498;48.564;19.272;2023-09-12T12:37:48;97371.19;;;30.08;32.10
77431;BME280;66498;48.564;19.272;2023-09-12T12:40:14;97387.06;;;30.25;31.85
77431;BME280;66498;48.564;19.272;2023-09-12T12:42:41;97385.22;;;30.29;31.62
77431;BME280;66498;48.564;19.272;2023-09-12T12:45:17;97379.00;;;30.29;30.97
77431;BME280;66498;48.564;19.272;2023-09-12T12:47:45;97377.31;;;30.40;31.38
77431;BME280;66498;48.564;19.272;2023-09-12T12:50:13;97379.78;;;30.29;32.00
77431;BME280;66498;48.564;19.272;2023-09-12T12:52:40;97380.31;;;30.35;32.07
77431;BME280;66498;48.564;19.272;2023-09-12T12:55:07;97378.25;;;30.12;31.85
77431;BME280;66498;48.564;19.272;2023-09-12T12:57:38;97380.44;;;30.23;31.58
77431;BME280;66498;48.564;19.272;2023-09-12T13:00:12;97384.72;;;30.24;31.42
77431;BME280;66498;48.564;19.272;2023-09-12T13:02:38;97380.34;;;30.54;30.85
77431;BME280;66498;48.564;19.272;2023-09-12T13:05:07;97375.53;;;30.67;31.26
77431;BME280;66498;48.564;19.272;2023-09-12T13:07:44;97370.69;;;30.57;30.61
77431;BME280;66498;48.564;19.272;2023-09-12T13:10:10;97377.84;;;30.65;30.04
77431;BME280;66498;48.564;19.272;2023-09-12T13:12:35;97373.97;;;30.66;27.94
77431;BME280;66498;48.564;19.272;2023-09-12T13:15:01;97375.75;;;30.58;28.71
77431;BME280;66498;48.564;19.272;2023-09-12T13:17:27;97365.03;;;30.81;29.43
77431;BME280;66498;48.564;19.272;2023-09-12T13:19:53;97365.56;;;30.71;29.23
77431;BME280;66498;48.564;19.272;2023-09-12T13:22:18;97371.13;;;30.59;29.24
77431;BME280;66498;48.564;19.272;2023-09-12T13:24:45;97369.72;;;30.10;29.86
77431;BME280;66498;48.564;19.272;2023-09-12T13:27:13;97374.13;;;29.83;29.69
77431;BME280;66498;48.564;19.272;2023-09-12T13:29:39;97362.06;;;29.65;30.15
77431;BME280;66498;48.564;19.272;2023-09-12T13:32:04;97367.22;;;30.37;30.24
77431;BME280;66498;48.564;19.272;2023-09-12T13:34:32;97363.84;;;30.63;28.76
77431;BME280;66498;48.564;19.272;2023-09-12T13:36:58;97373.41;;;30.37;29.74
77431;BME280;66498;48.564;19.272;2023-09-12T13:39:26;97367.78;;;30.27;29.67
77431;BME280;66498;48.564;19.272;2023-09-12T13:41:51;97362.38;;;29.95;29.52
77431;BME280;66498;48.564;19.272;2023-09-12T13:44:17;97357.09;;;29.83;30.39
77431;BME280;66498;48.564;19.272;2023-09-12T13:46:43;97363.22;;;29.80;29.05
77431;BME280;66498;48.564;19.272;2023-09-12T13:49:13;97357.19;;;29.70;30.69
77431;BME280;66498;48.564;19.272;2023-09-12T13:51:39;97353.25;;;29.84;30.28
77431;BME280;66498;48.564;19.272;2023-09-12T13:54:05;97356.66;;;29.49;30.79
77431;BME280;66498;48.564;19.272;2023-09-12T13:56:33;97358.25;;;30.17;30.62
77431;BME280;66498;48.564;19.272;2023-09-12T13:59:01;97359.47;;;30.20;29.85
77431;BME280;66498;48.564;19.272;2023-09-12T14:01:30;97358.09;;;30.64;29.73
77431;BME280;66498;48.564;19.272;2023-09-12T14:03:56;97356.97;;;30.85;29.47
77431;BME280;66498;48.564;19.272;2023-09-12T14:06:22;97355.88;;;30.70;30.22
77431;BME280;66498;48.564;19.272;2023-09-12T14:08:48;97356.59;;;30.48;30.54
77431;BME280;66498;48.564;19.272;2023-09-12T14:11:13;97354.59;;;30.64;29.54
77431;BME280;66498;48.564;19.272;2023-09-12T14:13:39;97354.25;;;30.85;28.99